createdAt,value
2019-04-07T00:01:00.168Z,14.40
2019-04-07T00:03:32.314Z,22.43
2019-04-07T00:06:04.166Z,18.13
2019-04-07T00:08:37.637Z,15.90
2019-04-07T00:11:09.410Z,14.77
2019-04-07T00:13:41.394Z,17.23
2019-04-07T00:16:13.480Z,15.93
2019-04-07T00:18:45.237Z,17.10
2019-04-07T00:21:16.968Z,17.17
2019-04-07T00:23:57.956Z,16.73
2019-04-07T00:26:29.933Z,18.10
2019-04-07T00:29:01.714Z,15.77
2019-04-07T00:31:33.384Z,16.00
2019-04-07T00:34:05.293Z,19.47
2019-04-07T00:36:37.810Z,15.63
2019-04-07T00:39:10.538Z,17.47
2019-04-07T00:41:44.261Z,15.37
2019-04-07T00:44:19.019Z,15.77
2019-04-07T00:46:51.116Z,17.83
2019-04-07T00:49:22.785Z,15.77
2019-04-07T00:51:58.487Z,15.63
2019-04-07T00:54:30.559Z,17.13
2019-04-07T00:57:02.345Z,15.70
2019-04-07T00:59:34.164Z,14.80
2019-04-07T01:02:05.916Z,16.87
2019-04-07T01:04:39.656Z,17.73
2019-04-07T01:07:11.424Z,18.43
2019-04-07T01:09:43.235Z,17.27
2019-04-07T01:12:14.929Z,18.57
2019-04-07T01:14:46.705Z,17.17
2019-04-07T01:17:21.628Z,17.03
2019-04-07T01:19:53.626Z,17.97
2019-04-07T01:22:29.611Z,18.10
2019-04-07T01:25:01.455Z,16.10
2019-04-07T01:27:34.623Z,17.87
2019-04-07T01:30:07.190Z,17.23
2019-04-07T01:32:39.508Z,16.87
2019-04-07T01:35:11.293Z,18.17
2019-04-07T01:37:43.092Z,20.47
2019-04-07T01:40:15.679Z,17.40
2019-04-07T01:43:15.335Z,17.30
2019-04-07T01:46:06.375Z,18.07
2019-04-07T01:49:10.884Z,18.80
2019-04-07T01:51:59.184Z,17.37
2019-04-07T01:54:59.104Z,17.20
2019-04-07T01:58:07.951Z,17.50
2019-04-07T02:00:58.729Z,18.30
2019-04-07T02:03:41.944Z,17.27
2019-04-07T02:06:33.218Z,17.00
2019-04-07T02:09:19.322Z,19.27
2019-04-07T02:12:13.109Z,17.20
2019-04-07T02:14:58.787Z,17.93
2019-04-07T02:17:52.854Z,18.40
2019-04-07T02:21:16.214Z,17.63
2019-04-07T02:24:01.297Z,18.40
2019-04-07T02:26:54.806Z,18.80
2019-04-07T02:29:36.657Z,18.13
2019-04-07T02:32:27.863Z,19.60
2019-04-07T02:35:19.289Z,18.40
2019-04-07T02:38:25.412Z,17.40
2019-04-07T02:41:20.772Z,19.37
2019-04-07T02:44:18.040Z,18.33
2019-04-07T02:47:09.884Z,18.13
2019-04-07T02:50:07.112Z,18.93
2019-04-07T02:52:57.221Z,17.70
2019-04-07T02:55:47.081Z,19.80
2019-04-07T02:58:44.341Z,19.57
2019-04-07T03:01:33.584Z,19.90
2019-04-07T03:04:33.403Z,18.90
2019-04-07T03:07:22.497Z,18.70
2019-04-07T03:10:02.980Z,18.80
2019-04-07T03:12:53.116Z,19.30
2019-04-07T03:15:52.722Z,19.43
2019-04-07T03:18:41.029Z,18.37
2019-04-07T03:21:52.592Z,18.63
2019-04-07T03:24:48.435Z,17.53
2019-04-07T03:27:42.274Z,18.97
2019-04-07T03:30:37.924Z,20.77
2019-04-07T03:33:25.575Z,20.83
2019-04-07T03:36:21.584Z,19.27
2019-04-07T03:38:59.855Z,19.57
2019-04-07T03:41:47.218Z,20.37
2019-04-07T03:44:30.462Z,19.73
2019-04-07T03:47:26.818Z,19.67
2019-04-07T03:50:18.560Z,18.80
2019-04-07T03:53:10.063Z,21.00
2019-04-07T03:56:04.052Z,19.70
2019-04-07T03:58:55.761Z,20.97
2019-04-07T04:01:45.469Z,19.73
2019-04-07T04:04:24.163Z,19.27
2019-04-07T04:07:28.393Z,18.70
2019-04-07T04:10:03.328Z,20.20
2019-04-07T04:12:53.020Z,20.13
2019-04-07T04:15:34.338Z,18.30
2019-04-07T04:18:06.002Z,19.50
2019-04-07T04:20:37.573Z,18.73
2019-04-07T04:23:10.449Z,19.60
2019-04-07T04:25:43.086Z,19.67
2019-04-07T04:28:14.852Z,20.67
2019-04-07T04:30:46.409Z,18.87
2019-04-07T04:33:18.127Z,20.93
2019-04-07T04:35:49.955Z,18.67
2019-04-07T04:38:26.179Z,18.53
2019-04-07T04:40:58.134Z,19.83
2019-04-07T04:43:29.804Z,21.87
2019-04-07T04:46:01.471Z,21.40
2019-04-07T04:48:39.335Z,23.17
2019-04-07T04:51:13.055Z,23.20
2019-04-07T04:53:45.669Z,21.90
2019-04-07T04:56:17.469Z,19.67
2019-04-07T04:58:49.688Z,21.43
2019-04-07T05:01:22.983Z,18.17
2019-04-07T05:03:54.716Z,21.13
2019-04-07T05:06:26.517Z,20.27
2019-04-07T05:08:58.314Z,22.37
2019-04-07T05:11:31.619Z,22.03
2019-04-07T05:14:04.907Z,19.87
2019-04-07T05:16:37.263Z,18.93
2019-04-07T05:19:09.753Z,19.73
2019-04-07T05:21:41.576Z,20.03
2019-04-07T05:24:15.641Z,19.93
2019-04-07T05:26:49.522Z,18.27
2019-04-07T05:29:22.733Z,20.13
2019-04-07T05:31:54.468Z,20.33
2019-04-07T05:34:26.611Z,19.87
2019-04-07T05:36:59.588Z,17.50
2019-04-07T05:39:31.746Z,19.97
2019-04-07T05:42:03.537Z,19.13
2019-04-07T05:44:35.620Z,20.80
2019-04-07T05:47:10.592Z,19.00
2019-04-07T05:49:41.397Z,18.80
2019-04-07T05:52:17.257Z,19.53
2019-04-07T05:54:49.946Z,19.33
2019-04-07T05:57:24.033Z,21.40
2019-04-07T05:59:56.095Z,19.93
2019-04-07T06:02:31.390Z,19.83
2019-04-07T06:05:01.301Z,20.27
2019-04-07T06:07:35.916Z,19.57
2019-04-07T06:10:07.995Z,19.67
2019-04-07T06:12:43.159Z,21.93
2019-04-07T06:15:15.722Z,22.23
2019-04-07T06:17:50.271Z,21.67
2019-04-07T06:20:22.493Z,18.73
2019-04-07T06:22:54.699Z,24.07
2019-04-07T06:25:27.314Z,22.77
2019-04-07T06:27:59.311Z,25.37
2019-04-07T06:30:33.928Z,26.60
2019-04-07T06:33:07.355Z,24.60
2019-04-07T06:35:43.782Z,24.47
2019-04-07T06:38:29.611Z,25.90
2019-04-07T06:40:55.882Z,24.07
2019-04-07T06:43:24.864Z,20.07
2019-04-07T06:46:07.139Z,21.07
2019-04-07T06:48:57.704Z,20.10
2019-04-07T06:51:40.230Z,22.67
2019-04-07T06:54:50.111Z,20.90
2019-04-07T06:57:40.085Z,22.60
2019-04-07T07:00:43.253Z,21.53
2019-04-07T07:03:41.098Z,23.07
2019-04-07T07:06:33.196Z,21.07
2019-04-07T07:09:25.804Z,23.80
2019-04-07T07:12:27.084Z,21.23
2019-04-07T07:15:15.677Z,22.77
2019-04-07T07:18:03.597Z,22.90
2019-04-07T07:20:55.621Z,22.63
2019-04-07T07:23:32.011Z,23.40
2019-04-07T07:26:04.236Z,22.63
2019-04-07T07:28:42.725Z,21.57
2019-04-07T07:31:13.110Z,23.20
2019-04-07T07:33:44.928Z,21.73
2019-04-07T07:36:18.415Z,19.57
2019-04-07T07:38:59.822Z,18.03
2019-04-07T07:41:24.218Z,19.63
2019-04-07T07:44:00.707Z,22.67
2019-04-07T07:46:32.237Z,20.30
2019-04-07T07:49:06.025Z,21.17
2019-04-07T07:51:45.031Z,21.07
2019-04-07T07:54:15.982Z,18.97
2019-04-07T07:56:50.149Z,20.90
2019-04-07T07:59:24.139Z,19.93
2019-04-07T08:01:57.798Z,19.57
2019-04-07T08:04:30.834Z,16.77
2019-04-07T08:07:02.775Z,18.53
2019-04-07T08:09:34.692Z,19.50
2019-04-07T08:12:08.488Z,19.70
2019-04-07T08:14:40.395Z,18.53
2019-04-07T08:17:12.286Z,16.07
2019-04-07T08:19:45.288Z,17.17
2019-04-07T08:22:27.520Z,16.80
2019-04-07T08:24:52.087Z,15.47
2019-04-07T08:27:24.526Z,12.93
2019-04-07T08:29:57.200Z,16.30
2019-04-07T08:32:33.405Z,14.90
2019-04-07T08:35:06.891Z,14.77
2019-04-07T08:37:39.373Z,15.10
2019-04-07T08:40:11.971Z,16.40
2019-04-07T08:42:46.370Z,15.73
2019-04-07T08:45:18.934Z,15.67
2019-04-07T08:47:52.521Z,13.83
2019-04-07T08:50:27.693Z,15.37
2019-04-07T08:52:57.926Z,14.43
2019-04-07T08:55:30.934Z,13.10
2019-04-07T08:58:05.307Z,13.57
2019-04-07T09:00:38.473Z,13.30
2019-04-07T09:03:14.735Z,13.60
2019-04-07T09:05:45.523Z,13.83
2019-04-07T09:08:17.951Z,14.47
2019-04-07T09:10:55.112Z,11.20
2019-04-07T09:13:27.661Z,9.87
2019-04-07T09:16:28.023Z,10.70
2019-04-07T09:19:25.200Z,10.03
2019-04-07T09:22:23.149Z,10.90
2019-04-07T09:25:17.132Z,25.00
2019-04-07T09:28:11.946Z,11.60
2019-04-07T09:31:11.867Z,10.47
2019-04-07T09:34:09.113Z,11.73
2019-04-07T09:37:04.460Z,11.10
2019-04-07T09:40:03.178Z,11.37
2019-04-07T09:42:57.593Z,11.00
2019-04-07T09:45:39.598Z,10.70
2019-04-07T09:48:31.148Z,10.10
2019-04-07T09:51:42.866Z,10.30
2019-04-07T09:54:47.366Z,10.70
2019-04-07T09:57:41.852Z,10.60
2019-04-07T10:00:24.251Z,11.57
2019-04-07T10:03:16.657Z,11.10
2019-04-07T10:06:00.756Z,10.07
2019-04-07T10:09:01.080Z,11.30
2019-04-07T10:11:50.837Z,12.17
2019-04-07T10:14:44.523Z,12.40
2019-04-07T10:17:34.526Z,11.20
2019-04-07T10:20:33.695Z,11.63
2019-04-07T10:23:24.231Z,12.07
2019-04-07T10:26:09.869Z,11.07
2019-04-07T10:28:47.662Z,11.43
2019-04-07T10:31:49.335Z,11.03
2019-04-07T10:34:49.752Z,11.03
2019-04-07T10:37:39.412Z,10.63
2019-04-07T10:40:35.654Z,9.27
2019-04-07T10:43:20.562Z,10.23
2019-04-07T10:46:33.651Z,12.87
2019-04-07T10:49:21.367Z,10.87
2019-04-07T10:52:13.550Z,12.23
2019-04-07T10:55:07.365Z,13.47
2019-04-07T10:58:04.308Z,12.50
2019-04-07T11:00:48.533Z,13.57
2019-04-07T11:03:46.066Z,11.97
2019-04-07T11:06:39.405Z,12.13
2019-04-07T11:09:30.040Z,11.73
2019-04-07T11:12:20.038Z,11.17
2019-04-07T11:15:16.751Z,11.40
2019-04-07T11:18:06.499Z,11.77
2019-04-07T11:20:57.312Z,11.07
2019-04-07T11:23:37.089Z,11.10
2019-04-07T11:26:21.913Z,11.20
2019-04-07T11:29:00.108Z,12.40
2019-04-07T11:31:54.932Z,11.30
2019-04-07T11:34:43.837Z,10.57
2019-04-07T11:37:34.201Z,10.90
2019-04-07T11:40:44.492Z,11.30
2019-04-07T11:43:24.699Z,10.87
2019-04-07T11:46:05.730Z,10.47
2019-04-07T11:48:46.842Z,11.23
2019-04-07T11:51:39.134Z,10.83
2019-04-07T11:54:27.911Z,11.30
2019-04-07T11:57:24.873Z,11.20
2019-04-07T12:00:18.393Z,12.73
2019-04-07T12:03:26.858Z,10.33
2019-04-07T12:06:17.269Z,10.13
2019-04-07T12:09:08.457Z,10.40
2019-04-07T12:12:02.496Z,9.73
2019-04-07T12:15:03.139Z,10.43
2019-04-07T12:18:07.119Z,10.03
2019-04-07T12:21:04.215Z,9.70
2019-04-07T12:23:59.359Z,9.40
2019-04-07T12:26:51.848Z,10.60
2019-04-07T12:29:37.584Z,9.73
2019-04-07T12:32:18.121Z,8.23
2019-04-07T12:35:08.765Z,9.70
2019-04-07T12:38:12.337Z,10.07
2019-04-07T12:41:23.029Z,9.63
2019-04-07T12:44:10.394Z,9.57
2019-04-07T12:47:11.343Z,10.03
2019-04-07T12:49:51.945Z,9.80
2019-04-07T12:52:35.486Z,10.10
2019-04-07T12:55:25.129Z,10.23
2019-04-07T12:58:31.278Z,10.97
2019-04-07T13:01:35.945Z,9.53
2019-04-07T13:04:16.226Z,8.83
2019-04-07T13:06:57.773Z,9.77
2019-04-07T13:10:01.904Z,7.90
2019-04-07T13:12:53.615Z,8.70
2019-04-07T13:16:00.362Z,9.47
2019-04-07T13:19:10.209Z,9.10
2019-04-07T13:22:21.584Z,8.50
2019-04-07T13:25:22.829Z,9.17
2019-04-07T13:28:20.638Z,8.57
2019-04-07T13:31:19.220Z,8.73
2019-04-07T13:34:24.618Z,9.67
2019-04-07T13:37:20.613Z,9.83
2019-04-07T13:40:13.110Z,9.30
2019-04-07T13:43:21.167Z,8.27
2019-04-07T13:46:18.931Z,8.30
2019-04-07T13:49:04.318Z,7.57
2019-04-07T13:51:49.539Z,8.33
2019-04-07T13:54:49.362Z,9.77
2019-04-07T13:57:39.293Z,8.77
2019-04-07T14:00:38.092Z,8.80
2019-04-07T14:03:44.168Z,8.17
2019-04-07T14:06:45.919Z,9.90
2019-04-07T14:09:34.142Z,9.13
2019-04-07T14:12:18.769Z,8.87
2019-04-07T14:15:07.593Z,9.77
2019-04-07T14:17:46.870Z,8.57
2019-04-07T14:20:55.143Z,8.67
2019-04-07T14:23:54.642Z,8.20
2019-04-07T14:26:43.517Z,8.30
2019-04-07T14:29:40.603Z,9.77
2019-04-07T14:32:23.394Z,9.00
2019-04-07T14:35:29.391Z,8.37
2019-04-07T14:38:26.559Z,10.37
2019-04-07T14:41:17.179Z,8.63
2019-04-07T14:44:11.346Z,9.95
2019-04-07T14:47:01.167Z,7.93
2019-04-07T14:49:52.107Z,9.07
2019-04-07T14:52:41.303Z,8.57
2019-04-07T14:55:24.848Z,9.17
2019-04-07T14:58:18.698Z,9.47
2019-04-07T15:01:08.319Z,9.90
2019-04-07T15:03:40.699Z,9.70
2019-04-07T15:06:12.603Z,9.37
2019-04-07T15:09:01.889Z,9.67
2019-04-07T15:11:38.424Z,9.30
2019-04-07T15:14:11.601Z,8.57
2019-04-07T15:16:43.913Z,8.53
2019-04-07T15:19:16.553Z,9.70
2019-04-07T15:21:51.927Z,8.60
2019-04-07T15:24:22.748Z,8.83
2019-04-07T15:26:56.086Z,9.03
2019-04-07T15:29:27.653Z,9.30
2019-04-07T15:31:59.805Z,9.50
2019-04-07T15:34:32.114Z,9.00
2019-04-07T15:37:07.908Z,8.07
2019-04-07T15:39:39.981Z,10.00
2019-04-07T15:42:15.325Z,9.40
2019-04-07T15:44:45.065Z,9.50
2019-04-07T15:47:16.892Z,8.40
2019-04-07T15:49:58.136Z,7.87
2019-04-07T15:52:31.501Z,8.33
2019-04-07T15:55:03.401Z,10.40
2019-04-07T15:57:36.090Z,9.27
2019-04-07T16:00:08.400Z,8.03
2019-04-07T16:02:42.219Z,10.03
2019-04-07T16:05:13.746Z,10.80
2019-04-07T16:07:48.070Z,11.50
2019-04-07T16:10:21.964Z,11.07
2019-04-07T16:12:54.120Z,8.87
2019-04-07T16:15:27.263Z,8.40
2019-04-07T16:17:58.913Z,9.03
2019-04-07T16:20:35.694Z,9.57
2019-04-07T16:23:03.769Z,10.30
2019-04-07T16:25:41.865Z,9.47
2019-04-07T16:28:16.670Z,10.03
2019-04-07T16:30:50.888Z,11.30
2019-04-07T16:33:21.738Z,16.70
2019-04-07T16:35:56.327Z,13.57
2019-04-07T16:38:30.174Z,11.10
2019-04-07T16:41:02.625Z,9.67
2019-04-07T16:43:35.552Z,9.37
2019-04-07T16:46:22.446Z,10.60
2019-04-07T16:48:55.618Z,13.73
2019-04-07T16:51:30.038Z,9.90
2019-04-07T16:54:00.365Z,8.70
2019-04-07T16:56:32.291Z,8.40
2019-04-07T16:59:04.267Z,9.40
2019-04-07T17:01:36.733Z,9.53
2019-04-07T17:04:08.377Z,9.27
2019-04-07T17:06:42.208Z,10.43
2019-04-07T17:09:23.079Z,10.43
2019-04-07T17:11:52.027Z,10.67
2019-04-07T17:14:23.790Z,9.87
2019-04-07T17:16:57.979Z,11.83
2019-04-07T17:19:30.197Z,10.37
2019-04-07T17:22:03.016Z,9.17
2019-04-07T17:24:34.793Z,9.87
2019-04-07T17:27:09.721Z,11.07
2019-04-07T17:29:40.281Z,9.60
2019-04-07T17:32:12.289Z,10.27
2019-04-07T17:34:46.496Z,10.00
2019-04-07T17:37:18.579Z,10.30
2019-04-07T17:40:14.847Z,9.23
2019-04-07T17:42:52.767Z,10.40
2019-04-07T17:45:52.088Z,10.73
2019-04-07T17:48:38.501Z,10.80
2019-04-07T17:51:18.127Z,10.10
2019-04-07T17:54:21.306Z,9.90
2019-04-07T17:57:03.796Z,10.43
2019-04-07T18:00:02.133Z,9.17
2019-04-07T18:02:56.906Z,9.90
2019-04-07T18:05:41.649Z,10.37
2019-04-07T18:08:33.818Z,11.23
2019-04-07T18:11:37.759Z,11.20
2019-04-07T18:14:22.716Z,10.73
2019-04-07T18:17:04.490Z,11.33
2019-04-07T18:19:41.588Z,11.23
2019-04-07T18:22:31.863Z,12.47
2019-04-07T18:25:25.276Z,12.00
2019-04-07T18:28:21.500Z,12.67
2019-04-07T18:31:14.169Z,12.53
2019-04-07T18:34:08.022Z,13.67
2019-04-07T18:37:38.808Z,12.57
2019-04-07T18:40:50.653Z,10.53
2019-04-07T18:43:48.722Z,11.83
2019-04-07T18:46:35.955Z,12.70
2019-04-07T18:49:32.075Z,11.13
2019-04-07T18:52:32.514Z,11.73
2019-04-07T18:55:27.058Z,10.47
2019-04-07T18:58:28.870Z,10.23
2019-04-07T19:01:25.354Z,12.60
2019-04-07T19:04:08.049Z,11.30
2019-04-07T19:07:16.693Z,11.47
2019-04-07T19:10:17.609Z,13.17
2019-04-07T19:13:12.129Z,22.70
2019-04-07T19:16:01.897Z,15.47
2019-04-07T19:18:52.014Z,16.60
2019-04-07T19:22:00.530Z,14.37
2019-04-07T19:24:48.384Z,11.87
2019-04-07T19:27:33.922Z,12.73
2019-04-07T19:30:26.547Z,12.10
2019-04-07T19:33:16.381Z,12.83
2019-04-07T19:36:20.520Z,11.63
2019-04-07T19:39:02.696Z,12.23
2019-04-07T19:41:50.966Z,11.57
2019-04-07T19:44:37.167Z,13.17
2019-04-07T19:47:41.694Z,13.27
2019-04-07T19:50:35.012Z,13.23
2019-04-07T19:53:30.338Z,13.03
2019-04-07T19:56:25.356Z,12.63
2019-04-07T19:59:22.266Z,13.47
2019-04-07T20:02:31.499Z,14.07
2019-04-07T20:05:20.002Z,13.10
2019-04-07T20:08:16.513Z,18.37
2019-04-07T20:11:18.974Z,13.77
2019-04-07T20:14:18.378Z,13.57
2019-04-07T20:17:16.408Z,24.60
2019-04-07T20:20:08.801Z,18.90
2019-04-07T20:22:58.885Z,13.53
2019-04-07T20:25:55.596Z,14.40
2019-04-07T20:28:46.454Z,14.87
2019-04-07T20:31:40.777Z,15.03
2019-04-07T20:34:28.611Z,13.77
2019-04-07T20:37:15.085Z,13.60
2019-04-07T20:40:03.446Z,13.17
2019-04-07T20:42:48.422Z,14.57
2019-04-07T20:45:41.184Z,13.40
2019-04-07T20:48:33.458Z,15.17
2019-04-07T20:51:23.122Z,13.77
2019-04-07T20:54:05.931Z,14.27
2019-04-07T20:57:05.290Z,16.17
2019-04-07T20:59:50.453Z,15.70
2019-04-07T21:02:48.718Z,13.97
2019-04-07T21:05:48.289Z,16.03
2019-04-07T21:08:38.796Z,16.13
2019-04-07T21:11:25.863Z,18.27
2019-04-07T21:14:22.851Z,17.40
2019-04-07T21:17:13.586Z,17.67
2019-04-07T21:20:11.812Z,19.23
2019-04-07T21:23:05.710Z,16.33
2019-04-07T21:25:56.043Z,15.83
2019-04-07T21:28:57.656Z,19.60
2019-04-07T21:31:47.414Z,18.57
2019-04-07T21:34:46.045Z,19.57
2019-04-07T21:37:40.718Z,20.13
2019-04-07T21:40:17.540Z,18.87
2019-04-07T21:43:09.325Z,21.60
2019-04-07T21:45:58.310Z,18.03
2019-04-07T21:49:02.371Z,17.97
2019-04-07T21:52:02.630Z,17.10
2019-04-07T21:54:47.109Z,20.47
2019-04-07T21:57:28.854Z,19.37
2019-04-07T22:00:33.107Z,19.73
2019-04-07T22:03:25.313Z,23.13
2019-04-07T22:06:16.512Z,25.00
2019-04-07T22:08:53.759Z,23.93
2019-04-07T22:11:29.015Z,23.73
2019-04-07T22:13:59.291Z,22.47
2019-04-07T22:16:32.788Z,25.07
2019-04-07T22:19:04.552Z,26.53
2019-04-07T22:21:36.555Z,23.70
2019-04-07T22:24:08.928Z,23.60
2019-04-07T22:26:40.872Z,21.87
2019-04-07T22:29:12.619Z,25.10
2019-04-07T22:31:53.515Z,23.50
2019-04-07T22:34:25.432Z,20.13
2019-04-07T22:36:57.908Z,19.47
2019-04-07T22:39:30.901Z,21.03
2019-04-07T22:42:03.417Z,19.43
2019-04-07T22:44:35.575Z,20.33
2019-04-07T22:47:07.374Z,20.20
2019-04-07T22:49:39.153Z,23.00
2019-04-07T22:52:15.771Z,26.13
2019-04-07T22:54:45.482Z,28.33
2019-04-07T22:57:17.723Z,26.93
2019-04-07T22:59:52.510Z,24.87
2019-04-07T23:02:24.216Z,23.13
2019-04-07T23:04:55.941Z,25.83
2019-04-07T23:07:27.682Z,27.43
2019-04-07T23:10:00.421Z,24.70
2019-04-07T23:12:32.853Z,23.70
2019-04-07T23:15:05.651Z,22.77
2019-04-07T23:17:37.506Z,24.60
2019-04-07T23:20:09.761Z,25.47
2019-04-07T23:22:42.345Z,23.03
2019-04-07T23:25:14.376Z,21.67
2019-04-07T23:27:48.124Z,20.53
2019-04-07T23:30:24.561Z,21.63
2019-04-07T23:32:56.470Z,19.80
2019-04-07T23:35:28.770Z,21.57
2019-04-07T23:38:01.502Z,17.30
2019-04-07T23:40:34.241Z,23.43
2019-04-07T23:43:06.054Z,21.70
2019-04-07T23:45:37.862Z,21.73
2019-04-07T23:48:10.373Z,21.50
2019-04-07T23:50:42.343Z,22.83
2019-04-07T23:53:50.627Z,24.73
2019-04-07T23:56:25.239Z,21.27
2019-04-07T23:58:56.906Z,23.57
